createdAt,value
2022-10-23T00:00:13.289Z,100840.97
2022-10-23T00:02:43.905Z,100828.81
2022-10-23T00:05:14.681Z,100872.00
2022-10-23T00:07:42.336Z,100874.59
2022-10-23T00:10:12.430Z,100864.13
2022-10-23T00:12:42.266Z,100871.63
2022-10-23T00:15:12.493Z,100864.66
2022-10-23T00:17:42.775Z,100871.25
2022-10-23T00:20:13.028Z,100875.19
2022-10-23T00:22:40.993Z,100864.31
2022-10-23T00:25:11.907Z,100868.09
2022-10-23T00:27:41.970Z,100871.00
2022-10-23T00:30:14.829Z,100876.06
2022-10-23T00:32:44.483Z,100852.66
2022-10-23T00:35:12.837Z,100881.66
2022-10-23T00:37:43.235Z,100836.44
2022-10-23T00:40:12.347Z,100873.56
2022-10-23T00:42:40.202Z,100842.16
2022-10-23T00:45:21.772Z,100864.69
2022-10-23T00:47:50.100Z,100867.69
2022-10-23T00:50:21.826Z,100867.47
2022-10-23T00:52:53.621Z,100872.28
2022-10-23T00:55:26.375Z,100874.88
2022-10-23T00:57:54.529Z,100867.09
2022-10-23T01:00:31.029Z,100877.78
2022-10-23T01:02:59.329Z,100880.41
2022-10-23T01:05:36.944Z,100883.59
2022-10-23T01:08:11.639Z,100883.16
2022-10-23T01:10:48.096Z,100894.97
2022-10-23T01:13:22.722Z,100871.97
2022-10-23T01:16:02.699Z,100849.91
2022-10-23T01:18:39.296Z,100877.84
2022-10-23T01:21:14.579Z,100891.03
2022-10-23T01:24:06.021Z,100905.16
2022-10-23T01:26:58.415Z,100891.19
2022-10-23T01:29:36.026Z,100870.06
2022-10-23T01:32:13.350Z,100895.53
2022-10-23T01:34:48.009Z,100896.94
2022-10-23T01:37:26.356Z,100882.13
2022-10-23T01:40:00.862Z,100839.78
2022-10-23T01:42:38.498Z,100870.94
2022-10-23T01:45:14.725Z,100890.28
2022-10-23T01:47:48.095Z,100894.31
2022-10-23T01:50:18.354Z,100897.59
2022-10-23T01:52:50.772Z,100892.47
2022-10-23T01:55:18.782Z,100901.75
2022-10-23T01:57:48.516Z,100872.22
2022-10-23T02:00:23.486Z,100885.03
2022-10-23T02:02:52.922Z,100902.00
2022-10-23T02:05:27.803Z,100901.03
2022-10-23T02:07:55.933Z,100894.88
2022-10-23T02:10:34.131Z,100897.53
2022-10-23T02:13:07.265Z,100890.91
2022-10-23T02:15:44.484Z,100894.44
2022-10-23T02:18:21.872Z,100893.81
2022-10-23T02:20:58.732Z,100902.97
2022-10-23T02:23:33.124Z,100890.66
2022-10-23T02:26:10.316Z,100900.22
2022-10-23T02:28:42.700Z,100891.75
2022-10-23T02:31:19.760Z,100890.72
2022-10-23T02:33:50.107Z,100900.78
2022-10-23T02:36:19.884Z,100845.19
2022-10-23T02:38:50.007Z,100903.38
2022-10-23T02:41:26.737Z,100907.69
2022-10-23T02:44:13.834Z,100903.97
2022-10-23T02:46:52.888Z,100873.22
2022-10-23T02:49:29.495Z,100904.31
2022-10-23T02:52:07.293Z,100858.81
2022-10-23T02:54:57.434Z,100914.06
2022-10-23T02:57:31.961Z,100914.66
2022-10-23T03:00:07.647Z,100907.28
2022-10-23T03:02:56.019Z,100909.06
2022-10-23T03:05:27.905Z,100914.97
2022-10-23T03:07:56.144Z,100914.69
2022-10-23T03:10:26.264Z,100919.22
2022-10-23T03:12:56.189Z,100903.09
2022-10-23T03:15:24.108Z,100896.69
2022-10-23T03:17:54.594Z,100923.75
2022-10-23T03:20:24.219Z,100917.81
2022-10-23T03:22:51.990Z,100926.25
2022-10-23T03:25:22.159Z,100921.00
2022-10-23T03:27:51.889Z,100900.16
2022-10-23T03:30:20.304Z,100929.38
2022-10-23T03:32:50.383Z,100876.16
2022-10-23T03:35:21.823Z,100921.22
2022-10-23T03:37:49.599Z,100892.75
2022-10-23T03:40:19.621Z,100925.72
2022-10-23T03:42:53.713Z,100925.75
2022-10-23T03:45:23.785Z,100928.34
2022-10-23T03:47:51.848Z,100925.78
2022-10-23T03:50:23.267Z,100935.00
2022-10-23T03:52:53.230Z,100898.47
2022-10-23T03:55:21.006Z,100930.75
2022-10-23T03:57:50.674Z,100923.88
2022-10-23T04:00:21.153Z,100930.88
2022-10-23T04:02:48.864Z,100928.44
2022-10-23T04:05:19.021Z,100931.94
2022-10-23T04:07:50.232Z,100928.50
2022-10-23T04:10:18.163Z,100929.34
2022-10-23T04:12:47.856Z,100885.50
2022-10-23T04:15:18.103Z,100935.44
2022-10-23T04:17:45.808Z,100916.88
2022-10-23T04:20:13.689Z,100938.03
2022-10-23T04:22:44.057Z,100938.97
2022-10-23T04:25:13.617Z,100937.13
2022-10-23T04:27:43.564Z,100938.75
2022-10-23T04:30:13.141Z,100876.94
2022-10-23T04:32:41.008Z,100849.84
2022-10-23T04:35:11.432Z,100934.56
2022-10-23T04:37:41.730Z,100951.84
2022-10-23T04:40:10.234Z,100929.78
2022-10-23T04:42:42.320Z,100948.38
2022-10-23T04:45:12.861Z,100918.72
2022-10-23T04:47:40.648Z,100949.06
2022-10-23T04:50:10.920Z,100950.13
2022-10-23T04:52:41.242Z,100955.28
2022-10-23T04:55:09.694Z,100962.19
2022-10-23T04:57:41.098Z,100958.75
2022-10-23T05:00:14.255Z,100925.81
2022-10-23T05:02:44.162Z,100967.28
2022-10-23T05:05:14.359Z,100929.94
2022-10-23T05:07:42.447Z,100964.47
2022-10-23T05:10:11.143Z,100966.41
2022-10-23T05:12:41.825Z,100967.88
2022-10-23T05:15:10.284Z,100980.00
2022-10-23T05:17:44.086Z,100982.28
2022-10-23T05:20:19.397Z,100923.09
2022-10-23T05:22:53.018Z,100930.16
2022-10-23T05:25:20.954Z,100955.34
2022-10-23T05:27:50.138Z,100941.22
2022-10-23T05:30:19.940Z,100988.75
2022-10-23T05:32:50.083Z,100992.22
2022-10-23T05:35:24.138Z,100993.22
2022-10-23T05:37:55.688Z,100995.66
2022-10-23T05:40:23.974Z,100995.63
2022-10-23T05:42:55.231Z,100999.91
2022-10-23T05:45:23.154Z,100997.28
2022-10-23T05:47:50.971Z,100996.53
2022-10-23T05:50:21.012Z,100997.41
2022-10-23T05:52:50.987Z,100955.88
2022-10-23T05:55:18.885Z,100950.88
2022-10-23T05:57:49.011Z,100956.91
2022-10-23T06:00:26.377Z,101008.59
2022-10-23T06:02:56.192Z,101005.25
2022-10-23T06:05:23.979Z,101009.63
2022-10-23T06:07:54.056Z,101011.31
2022-10-23T06:10:26.130Z,100973.16
2022-10-23T06:12:53.928Z,101013.63
2022-10-23T06:15:21.802Z,100988.22
2022-10-23T06:17:54.724Z,101026.25
2022-10-23T06:20:26.540Z,101028.81
2022-10-23T06:23:00.641Z,101033.84
2022-10-23T06:25:30.736Z,101037.38
2022-10-23T06:27:58.662Z,101042.44
2022-10-23T06:30:28.568Z,101031.59
2022-10-23T06:33:03.207Z,101051.97
2022-10-23T06:35:35.810Z,101052.63
2022-10-23T06:38:05.936Z,101049.19
2022-10-23T06:40:36.310Z,101056.97
2022-10-23T06:43:06.123Z,101020.81
2022-10-23T06:45:35.062Z,101069.00
2022-10-23T06:48:04.526Z,101071.69
2022-10-23T06:50:34.143Z,101080.88
2022-10-23T06:53:02.246Z,101080.00
2022-10-23T06:55:32.384Z,101075.88
2022-10-23T06:58:00.613Z,101069.94
2022-10-23T07:00:28.561Z,101070.06
2022-10-23T07:02:58.809Z,101076.13
2022-10-23T07:05:29.878Z,101080.25
2022-10-23T07:07:57.676Z,101084.38
2022-10-23T07:10:28.090Z,101086.94
2022-10-23T07:13:02.548Z,101085.94
2022-10-23T07:15:31.138Z,101025.78
2022-10-23T07:17:58.879Z,101088.41
2022-10-23T07:20:30.730Z,101051.13
2022-10-23T07:23:00.686Z,101061.44
2022-10-23T07:25:28.760Z,101104.00
2022-10-23T07:27:58.611Z,101106.50
2022-10-23T07:30:26.548Z,101041.06
2022-10-23T07:32:54.333Z,101053.66
2022-10-23T07:35:24.041Z,101100.81
2022-10-23T07:37:55.129Z,101098.03
2022-10-23T07:40:23.106Z,101093.75
2022-10-23T07:42:52.835Z,101032.66
2022-10-23T07:45:20.689Z,101083.59
2022-10-23T07:47:52.093Z,101085.38
2022-10-23T07:50:20.260Z,101081.75
2022-10-23T07:52:50.371Z,101089.41
2022-10-23T07:55:19.904Z,101086.03
2022-10-23T07:57:52.043Z,101084.34
2022-10-23T08:00:20.151Z,101089.91
2022-10-23T08:02:48.033Z,101088.97
2022-10-23T08:05:16.217Z,101099.31
2022-10-23T08:07:44.028Z,101069.91
2022-10-23T08:10:11.775Z,101101.03
2022-10-23T08:12:44.996Z,101101.09
2022-10-23T08:15:13.008Z,101101.97
2022-10-23T08:17:41.174Z,101103.34
2022-10-23T08:20:15.577Z,101104.88
2022-10-23T08:22:43.462Z,101072.81
2022-10-23T08:25:11.501Z,101117.56
2022-10-23T08:27:45.368Z,101120.16
2022-10-23T08:30:13.787Z,101120.28
2022-10-23T08:32:41.570Z,101118.81
2022-10-23T08:35:10.241Z,101128.59
2022-10-23T08:37:38.052Z,101091.81
2022-10-23T08:40:06.642Z,101077.94
2022-10-23T08:42:41.935Z,101137.00
2022-10-23T08:45:28.662Z,101138.72
2022-10-23T08:48:07.172Z,101137.09
2022-10-23T08:50:41.392Z,101129.19
2022-10-23T08:53:19.066Z,101137.78
2022-10-23T08:55:50.665Z,101145.00
2022-10-23T08:58:31.311Z,101120.59
2022-10-23T09:01:00.549Z,101149.06
2022-10-23T09:03:30.685Z,101145.25
2022-10-23T09:06:12.508Z,101146.06
2022-10-23T09:08:53.710Z,101145.38
2022-10-23T09:11:30.807Z,101145.47
2022-10-23T09:14:37.090Z,101146.59
2022-10-23T09:17:19.075Z,101121.09
2022-10-23T09:19:55.091Z,101145.97
2022-10-23T09:22:24.945Z,101142.16
2022-10-23T09:24:53.955Z,101141.63
2022-10-23T09:27:22.333Z,101107.50
2022-10-23T09:29:52.091Z,101160.97
2022-10-23T09:32:23.052Z,101163.44
2022-10-23T09:34:53.525Z,101162.63
2022-10-23T09:37:27.871Z,101169.16
2022-10-23T09:40:19.644Z,101174.72
2022-10-23T09:42:59.107Z,101130.16
2022-10-23T09:45:34.160Z,101177.47
2022-10-23T09:48:13.155Z,101170.09
2022-10-23T09:50:51.073Z,101164.34
2022-10-23T09:53:24.340Z,101174.84
2022-10-23T09:55:59.830Z,101181.59
2022-10-23T09:58:34.660Z,101152.44
2022-10-23T10:01:03.600Z,101141.66
2022-10-23T10:03:33.017Z,101191.59
2022-10-23T10:06:02.731Z,101173.81
2022-10-23T10:08:47.336Z,101167.69
2022-10-23T10:11:21.138Z,101177.81
2022-10-23T10:14:15.596Z,101184.75
2022-10-23T10:16:48.681Z,101180.88
2022-10-23T10:19:35.950Z,101177.16
2022-10-23T10:22:11.394Z,101175.19
2022-10-23T10:24:50.090Z,101171.09
2022-10-23T10:27:29.762Z,101177.31
2022-10-23T10:30:11.493Z,101177.81
2022-10-23T10:32:46.542Z,101180.81
2022-10-23T10:35:45.320Z,101124.84
2022-10-23T10:38:31.125Z,101169.19
2022-10-23T10:41:22.590Z,101178.66
2022-10-23T10:44:05.915Z,101182.06
2022-10-23T10:46:41.152Z,101175.34
2022-10-23T10:49:16.772Z,101182.72
2022-10-23T10:51:52.782Z,101178.22
2022-10-23T10:54:36.616Z,101183.69
2022-10-23T10:57:13.580Z,101165.16
2022-10-23T10:59:46.327Z,101159.94
2022-10-23T11:02:28.848Z,101184.72
2022-10-23T11:05:10.730Z,101189.97
2022-10-23T11:07:44.486Z,101177.41
2022-10-23T11:10:18.263Z,101188.53
2022-10-23T11:12:49.738Z,101178.78
2022-10-23T11:15:22.195Z,101174.31
2022-10-23T11:17:56.329Z,101169.09
2022-10-23T11:20:40.438Z,101175.88
2022-10-23T11:23:37.654Z,101181.47
2022-10-23T11:26:19.689Z,101161.19
2022-10-23T11:29:05.966Z,101183.03
2022-10-23T11:31:43.852Z,101134.53
2022-10-23T11:34:49.764Z,101182.66
2022-10-23T11:37:21.655Z,101180.94
2022-10-23T11:40:04.874Z,101188.22
2022-10-23T11:42:47.000Z,101178.00
2022-10-23T11:45:48.756Z,101190.09
2022-10-23T11:48:24.077Z,101201.59
2022-10-23T11:50:55.091Z,101195.28
2022-10-23T11:53:40.165Z,101204.84
2022-10-23T11:59:22.547Z,101203.59
2022-10-23T12:01:55.061Z,101198.53
2022-10-23T12:04:29.378Z,101177.44
2022-10-23T12:07:02.168Z,101172.38
2022-10-23T12:09:39.169Z,101195.84
2022-10-23T12:12:18.590Z,101197.34
2022-10-23T12:14:51.842Z,101197.53
2022-10-23T12:17:35.817Z,101192.41
2022-10-23T12:20:20.564Z,101150.38
2022-10-23T12:23:06.170Z,101196.97
2022-10-23T12:25:45.380Z,101194.25
2022-10-23T12:28:30.320Z,101200.38
2022-10-23T12:31:14.222Z,101200.31
2022-10-23T12:33:49.022Z,101209.31
2022-10-23T12:36:54.229Z,101203.81
2022-10-23T12:39:31.033Z,101202.50
2022-10-23T12:42:00.179Z,101206.91
2022-10-23T12:44:30.470Z,101202.72
2022-10-23T12:47:05.607Z,101196.72
2022-10-23T12:49:35.459Z,101201.75
2022-10-23T12:52:08.745Z,101169.59
2022-10-23T12:54:40.702Z,101198.34
2022-10-23T12:57:23.576Z,101197.81
2022-10-23T12:59:54.490Z,101199.38
2022-10-23T13:02:30.138Z,101198.91
2022-10-23T13:05:01.163Z,101200.31
2022-10-23T13:07:30.994Z,101198.00
2022-10-23T13:10:00.105Z,101196.97
2022-10-23T13:12:31.361Z,101184.31
2022-10-23T13:15:03.496Z,101187.56
2022-10-23T13:17:38.035Z,101199.09
2022-10-23T13:20:28.358Z,101195.28
2022-10-23T13:23:01.643Z,101196.91
2022-10-23T13:25:34.612Z,101198.28
2022-10-23T13:28:24.727Z,101193.88
2022-10-23T13:31:07.751Z,101189.78
2022-10-23T13:33:39.555Z,101195.38
2022-10-23T13:36:22.264Z,101165.53
2022-10-23T13:39:01.660Z,101191.59
2022-10-23T13:41:33.704Z,101196.66
2022-10-23T13:44:01.578Z,101194.59
2022-10-23T13:46:29.425Z,101169.75
2022-10-23T13:49:00.761Z,101187.59
2022-10-23T13:51:31.421Z,101188.72
2022-10-23T13:53:59.553Z,101192.78
2022-10-23T13:56:31.766Z,101194.84
2022-10-23T13:58:59.584Z,101185.97
2022-10-23T14:01:30.818Z,101194.00
2022-10-23T14:04:04.404Z,101186.69
2022-10-23T14:06:33.070Z,101164.28
2022-10-23T14:09:01.148Z,101191.50
2022-10-23T14:11:34.302Z,101194.84
2022-10-23T14:14:02.063Z,101126.25
2022-10-23T14:16:30.007Z,101192.69
2022-10-23T14:19:01.552Z,101185.44
2022-10-23T14:21:29.449Z,101189.94
2022-10-23T14:23:57.225Z,101181.31
2022-10-23T14:26:30.374Z,101195.19
2022-10-23T14:29:02.340Z,101188.00
2022-10-23T14:31:38.792Z,101168.75
2022-10-23T14:34:10.023Z,101173.13
2022-10-23T14:36:49.468Z,101191.13
2022-10-23T14:39:21.972Z,101202.97
2022-10-23T14:41:49.737Z,101164.44
2022-10-23T14:44:17.563Z,101185.91
2022-10-23T14:46:49.476Z,101212.28
2022-10-23T14:49:18.760Z,101209.00
2022-10-23T14:51:46.571Z,101204.88
2022-10-23T14:54:17.695Z,101208.91
2022-10-23T14:56:45.530Z,101214.53
2022-10-23T14:59:15.144Z,101210.09
2022-10-23T15:01:48.962Z,101214.19
2022-10-23T15:04:21.827Z,101211.97
2022-10-23T15:06:51.745Z,101202.63
2022-10-23T15:09:20.358Z,101201.22
2022-10-23T15:12:01.483Z,101211.53
2022-10-23T15:14:29.438Z,101162.75
2022-10-23T15:16:57.272Z,101209.81
2022-10-23T15:19:27.107Z,101213.06
2022-10-23T15:21:54.876Z,101205.19
2022-10-23T15:24:23.080Z,101186.88
2022-10-23T15:26:52.070Z,101195.53
2022-10-23T15:29:20.306Z,101164.72
2022-10-23T15:31:56.348Z,101163.09
2022-10-23T15:34:29.753Z,101161.69
2022-10-23T15:36:58.628Z,101214.31
2022-10-23T15:39:28.701Z,101176.25
2022-10-23T15:41:57.727Z,101214.44
2022-10-23T15:44:27.678Z,101213.66
2022-10-23T15:46:56.985Z,101209.47
2022-10-23T15:49:32.406Z,101220.69
2022-10-23T15:52:00.540Z,101226.53
2022-10-23T15:54:31.910Z,101232.59
2022-10-23T15:57:01.655Z,101230.09
2022-10-23T15:59:31.402Z,101236.19
2022-10-23T16:01:59.710Z,101237.06
2022-10-23T16:04:35.200Z,101235.44
2022-10-23T16:07:02.956Z,101183.81
2022-10-23T16:09:30.812Z,101226.16
2022-10-23T16:12:02.708Z,101227.97
2022-10-23T16:14:30.521Z,101226.25
2022-10-23T16:16:58.312Z,101217.50
2022-10-23T16:19:31.740Z,101227.56
2022-10-23T16:21:59.550Z,101241.03
2022-10-23T16:24:27.390Z,101240.31
2022-10-23T16:26:59.573Z,101230.16
2022-10-23T16:29:29.552Z,101234.63
2022-10-23T16:31:59.828Z,101196.56
2022-10-23T16:34:30.898Z,101222.59
2022-10-23T16:36:58.744Z,101172.66
2022-10-23T16:39:30.435Z,101236.19
2022-10-23T16:41:58.774Z,101235.25
2022-10-23T16:44:26.762Z,101237.19
2022-10-23T16:46:54.644Z,101240.63
2022-10-23T16:49:22.644Z,101236.28
2022-10-23T16:51:51.840Z,101240.75
2022-10-23T16:54:21.606Z,101243.97
2022-10-23T16:56:49.643Z,101234.72
2022-10-23T16:59:17.559Z,101180.75
2022-10-23T17:01:45.657Z,101244.16
2022-10-23T17:04:15.446Z,101246.88
2022-10-23T17:06:43.275Z,101248.66
2022-10-23T17:09:12.547Z,101252.69
2022-10-23T17:11:41.924Z,101254.59
2022-10-23T17:14:14.452Z,101260.53
2022-10-23T17:16:46.908Z,101265.66
2022-10-23T17:19:40.164Z,101209.84
2022-10-23T17:22:10.681Z,101267.38
2022-10-23T17:24:50.135Z,101272.50
2022-10-23T17:27:21.853Z,101266.63
2022-10-23T17:29:49.836Z,101275.75
2022-10-23T17:32:17.737Z,101277.53
2022-10-23T17:34:46.674Z,101263.94
2022-10-23T17:37:14.757Z,101275.81
2022-10-23T17:39:44.287Z,101276.59
2022-10-23T17:42:22.499Z,101276.47
2022-10-23T17:44:52.666Z,101276.59
2022-10-23T17:47:20.741Z,101235.13
2022-10-23T17:49:48.855Z,101268.88
2022-10-23T17:52:20.904Z,101278.47
2022-10-23T17:54:53.475Z,101270.00
2022-10-23T17:59:52.553Z,101215.69
2022-10-23T18:02:20.993Z,101241.19
2022-10-23T18:04:49.210Z,101286.06
2022-10-23T18:07:17.181Z,101285.13
2022-10-23T18:09:48.119Z,101252.88
2022-10-23T18:12:19.427Z,101285.06
2022-10-23T18:14:51.876Z,101303.22
2022-10-23T18:17:24.902Z,101306.56
2022-10-23T18:20:01.663Z,101318.34
2022-10-23T18:22:33.438Z,101317.53
2022-10-23T18:25:03.332Z,101306.59
2022-10-23T18:27:41.692Z,101330.41
2022-10-23T18:30:13.457Z,101326.69
2022-10-23T18:32:42.001Z,101325.34
2022-10-23T18:35:13.585Z,101327.25
2022-10-23T18:37:43.971Z,101281.66
2022-10-23T18:40:21.272Z,101330.84
2022-10-23T18:42:58.962Z,101335.13
2022-10-23T18:45:30.780Z,101332.53
2022-10-23T18:48:03.122Z,101332.44
2022-10-23T18:50:38.960Z,101329.50
2022-10-23T18:53:10.495Z,101330.66
2022-10-23T18:55:47.213Z,101302.03
2022-10-23T18:58:19.910Z,101332.63
2022-10-23T19:00:49.688Z,101330.09
2022-10-23T19:03:21.042Z,101326.88
2022-10-23T19:05:54.543Z,101327.97
2022-10-23T19:08:33.425Z,101313.69
2022-10-23T19:11:05.962Z,101323.91
2022-10-23T19:13:39.535Z,101341.72
2022-10-23T19:16:25.182Z,101346.03
2022-10-23T19:18:57.834Z,101313.78
2022-10-23T19:21:32.243Z,101351.16
2022-10-23T19:24:07.432Z,101316.50
2022-10-23T19:26:44.692Z,101349.78
2022-10-23T19:29:18.834Z,101360.03
2022-10-23T19:31:54.543Z,101359.09
2022-10-23T19:34:25.307Z,101359.03
2022-10-23T19:36:55.384Z,101295.38
2022-10-23T19:39:27.253Z,101339.53
2022-10-23T19:41:58.294Z,101365.75
2022-10-23T19:44:31.858Z,101362.41
2022-10-23T19:47:02.246Z,101368.53
2022-10-23T19:49:33.574Z,101364.22
2022-10-23T19:52:02.763Z,101364.09
2022-10-23T19:54:34.067Z,101369.28
2022-10-23T19:57:04.359Z,101347.31
2022-10-23T19:59:36.231Z,101364.25
2022-10-23T20:02:05.207Z,101360.53
2022-10-23T20:04:35.718Z,101353.69
2022-10-23T20:07:05.923Z,101362.91
2022-10-23T20:09:36.671Z,101366.41
2022-10-23T20:12:05.147Z,101363.06
2022-10-23T20:14:43.196Z,101372.44
2022-10-23T20:17:11.103Z,101369.13
2022-10-23T20:19:41.272Z,101364.69
2022-10-23T20:22:11.455Z,101330.72
2022-10-23T20:24:42.332Z,101362.09
2022-10-23T20:27:13.892Z,101322.50
2022-10-23T20:29:43.944Z,101355.59
2022-10-23T20:32:15.605Z,101367.47
2022-10-23T20:34:43.944Z,101366.66
2022-10-23T20:37:11.960Z,101367.66
2022-10-23T20:39:42.010Z,101377.09
2022-10-23T20:42:09.944Z,101327.00
2022-10-23T20:44:37.999Z,101369.03
2022-10-23T20:47:11.199Z,101347.06
2022-10-23T20:49:39.053Z,101357.22
2022-10-23T20:52:06.887Z,101355.53
2022-10-23T20:54:40.139Z,101367.47
2022-10-23T20:57:07.974Z,101373.44
2022-10-23T20:59:35.877Z,101357.41
2022-10-23T21:02:04.033Z,101368.88
2022-10-23T21:04:33.392Z,101364.03
2022-10-23T21:07:16.446Z,101368.53
2022-10-23T21:09:44.620Z,101364.22
2022-10-23T21:12:12.429Z,101366.03
2022-10-23T21:14:40.272Z,101336.59
2022-10-23T21:17:10.828Z,101366.59
2022-10-23T21:19:40.204Z,101368.13
2022-10-23T21:22:08.052Z,101345.50
2022-10-23T21:24:38.045Z,101372.94
2022-10-23T21:27:05.859Z,101375.91
2022-10-23T21:29:33.654Z,101379.41
2022-10-23T21:32:05.904Z,101370.28
2022-10-23T21:34:33.695Z,101378.53
2022-10-23T21:37:13.409Z,101352.28
2022-10-23T21:39:42.265Z,101318.53
2022-10-23T21:42:10.491Z,101376.84
2022-10-23T21:44:38.609Z,101368.59
2022-10-23T21:47:08.934Z,101349.06
2022-10-23T21:49:36.953Z,101351.06
2022-10-23T21:52:06.299Z,101381.31
2022-10-23T21:54:34.313Z,101362.69
2022-10-23T21:57:03.177Z,101389.81
2022-10-23T21:59:33.195Z,101346.44
2022-10-23T22:02:07.537Z,101377.00
2022-10-23T22:04:35.357Z,101391.56
2022-10-23T22:07:03.739Z,101394.00
2022-10-23T22:09:36.823Z,101395.06
2022-10-23T22:12:04.864Z,101357.34
2022-10-23T22:14:36.704Z,101398.53
2022-10-23T22:17:04.979Z,101387.38
2022-10-23T22:19:33.374Z,101391.97
2022-10-23T22:22:01.361Z,101391.72
2022-10-23T22:24:31.181Z,101399.34
2022-10-23T22:27:00.324Z,101389.09
2022-10-23T22:29:30.242Z,101389.09
2022-10-23T22:32:01.980Z,101397.88
2022-10-23T22:37:23.412Z,101398.47
2022-10-23T22:39:53.922Z,101387.59
2022-10-23T22:42:22.859Z,101393.59
2022-10-23T22:44:52.467Z,101403.09
2022-10-23T22:47:22.511Z,101394.16
2022-10-23T22:49:50.229Z,101394.13
2022-10-23T22:52:19.857Z,101370.75
2022-10-23T22:54:51.712Z,101395.41
2022-10-23T22:57:19.586Z,101350.53
2022-10-23T22:59:48.785Z,101391.75
2022-10-23T23:02:16.717Z,101401.38
2022-10-23T23:04:44.513Z,101342.00
2022-10-23T23:07:13.613Z,101365.69
2022-10-23T23:09:46.715Z,101387.41
2022-10-23T23:12:15.822Z,101392.59
2022-10-23T23:14:45.715Z,101360.97
2022-10-23T23:17:16.712Z,101361.50
2022-10-23T23:19:44.519Z,101385.41
2022-10-23T23:22:14.496Z,101368.53
2022-10-23T23:24:44.245Z,101388.78
2022-10-23T23:27:12.190Z,101381.94
2022-10-23T23:29:42.199Z,101390.75
2022-10-23T23:32:13.555Z,101388.81
2022-10-23T23:34:42.847Z,101388.69
2022-10-23T23:37:10.665Z,101392.31
2022-10-23T23:39:41.013Z,101356.19
2022-10-23T23:42:11.045Z,101387.69
2022-10-23T23:44:45.864Z,101365.44
2022-10-23T23:47:27.901Z,101359.97
2022-10-23T23:49:57.148Z,101392.88
2022-10-23T23:52:24.954Z,101393.94
2022-10-23T23:54:57.391Z,101395.66
2022-10-23T23:57:25.211Z,101367.19
2022-10-23T23:59:53.128Z,101411.63
